Time;durP1;ratioP1;P1;durP2;ratioP2;P2;SDS_P1;SDS_P2;PMS_P1;PMS_P2;Temp;Humidity;BMP_temperature;BMP_pressure;BME280_temperature;BME280_humidity;BME280_pressure;Samples;Min_cycle;Max_cycle;Signal;HPM_P1;HPM_P2
2022/05/18 00:00:27;;;;;;;9.07;3.90;;;15.60;89.70;;;;;;5001386;28;20489;-52
2022/05/18 00:02:54;;;;;;;4.10;3.80;;;15.40;89.80;;;;;;5012410;28;20487;-52
2022/05/18 00:05:21;;;;;;;6.10;3.30;;;15.20;90.30;;;;;;5015319;28;20718;-52
2022/05/18 00:07:48;;;;;;;5.27;4.30;;;15.10;90.50;;;;;;5013849;28;20476;-52
2022/05/18 00:10:14;;;;;;;6.00;3.90;;;15.00;90.50;;;;;;5014902;28;20476;-52
2022/05/18 00:12:46;;;;;;;9.20;3.80;;;15.10;90.70;;;;;;5010183;28;20484;-52
2022/05/18 00:15:14;;;;;;;4.03;3.20;;;15.10;90.70;;;;;;5008850;28;20464;-52
2022/05/18 00:17:41;;;;;;;4.30;3.90;;;15.10;90.90;;;;;;5020654;28;20485;-52
2022/05/18 00:20:09;;;;;;;5.63;4.50;;;15.10;91.00;;;;;;5015714;28;20844;-52
2022/05/18 00:22:44;;;;;;;5.77;3.47;;;15.20;90.50;;;;;;5015632;28;20496;-52
2022/05/18 00:25:11;;;;;;;4.97;3.60;;;15.20;90.70;;;;;;5012055;28;20491;-51
2022/05/18 00:27:37;;;;;;;5.03;4.43;;;15.20;90.50;;;;;;5018147;28;20504;-52
2022/05/18 00:30:07;;;;;;;4.70;3.80;;;15.20;90.70;;;;;;5013347;28;20513;-52
2022/05/18 00:32:34;;;;;;;5.03;4.40;;;15.10;90.70;;;;;;5017169;28;20507;-51
2022/05/18 00:35:00;;;;;;;9.83;4.07;;;14.90;90.90;;;;;;5015525;28;20815;-52
2022/05/18 00:37:27;;;;;;;5.83;4.17;;;14.80;91.00;;;;;;5017828;28;20850;-52
2022/05/18 00:39:54;;;;;;;5.60;3.67;;;14.80;91.10;;;;;;5015944;28;20842;-55
2022/05/18 00:42:21;;;;;;;4.47;4.07;;;14.80;90.90;;;;;;5019211;28;20569;-52
2022/05/18 00:44:48;;;;;;;4.90;4.03;;;14.80;91.00;;;;;;5018412;28;20554;-52
2022/05/18 00:47:16;;;;;;;4.13;3.73;;;14.60;90.80;;;;;;5016579;28;20494;-52
2022/05/18 00:49:48;;;;;;;5.00;4.50;;;14.40;91.00;;;;;;5017954;28;20480;-52
2022/05/18 00:52:17;;;;;;;4.03;3.60;;;14.10;91.40;;;;;;5018875;28;20476;-52
2022/05/18 00:54:44;;;;;;;5.20;4.70;;;14.10;91.70;;;;;;5017132;28;20533;-52
2022/05/18 00:57:16;;;;;;;4.53;3.83;;;14.10;92.00;;;;;;5016942;28;20807;-52
2022/05/18 00:59:46;;;;;;;5.47;4.90;;;14.00;92.70;;;;;;5017349;28;20503;-53
2022/05/18 01:02:13;;;;;;;7.10;5.00;;;14.10;92.60;;;;;;5018784;28;20817;-51
2022/05/18 01:04:43;;;;;;;4.30;3.83;;;14.10;92.30;;;;;;5017749;28;20478;-51
2022/05/18 01:07:17;;;;;;;6.00;3.93;;;14.20;91.90;;;;;;5016183;28;20518;-51
2022/05/18 01:09:47;;;;;;;3.47;3.17;;;14.20;91.70;;;;;;5016798;28;20480;-52
2022/05/18 01:12:17;;;;;;;3.93;3.47;;;14.20;91.50;;;;;;5013822;28;20483;-51
2022/05/18 01:14:49;;;;;;;5.60;4.50;;;14.00;91.90;;;;;;5017411;28;20491;-52
2022/05/18 01:17:20;;;;;;;7.80;4.30;;;13.90;92.50;;;;;;5013221;28;20472;-52
2022/05/18 01:19:50;;;;;;;4.57;4.17;;;13.90;92.40;;;;;;5006543;28;20475;-52
2022/05/18 01:22:25;;;;;;;5.03;4.20;;;14.00;92.30;;;;;;5006840;28;20483;-52
2022/05/18 01:24:58;;;;;;;4.30;3.90;;;14.10;92.20;;;;;;5006795;28;20508;-52
2022/05/18 01:27:27;;;;;;;6.83;4.00;;;14.20;91.90;;;;;;5017582;28;20998;-52
2022/05/18 01:29:53;;;;;;;3.70;3.40;;;14.20;91.60;;;;;;5015009;28;20488;-52
2022/05/18 01:32:21;;;;;;;3.67;3.37;;;14.20;91.40;;;;;;5014099;28;20476;-52
2022/05/18 01:34:48;;;;;;;3.90;3.50;;;14.10;91.50;;;;;;5013603;28;20543;-52
2022/05/18 01:37:16;;;;;;;12.43;4.57;;;14.00;91.40;;;;;;5015018;28;20883;-51
2022/05/18 01:39:47;;;;;;;5.17;4.37;;;14.00;91.40;;;;;;5018935;28;20475;-52
2022/05/18 01:42:25;;;;;;;7.63;5.03;;;14.00;91.40;;;;;;5021989;28;20482;-51
2022/05/18 01:44:53;;;;;;;4.23;3.43;;;14.00;91.30;;;;;;5017682;28;20887;-52
2022/05/18 01:47:19;;;;;;;5.20;4.70;;;14.00;91.20;;;;;;5006382;28;20480;-51
2022/05/18 01:49:47;;;;;;;5.00;3.77;;;14.00;91.20;;;;;;5020207;28;20495;-51
2022/05/18 01:52:14;;;;;;;11.07;4.20;;;14.00;91.30;;;;;;5019505;28;20483;-52
2022/05/18 01:54:43;;;;;;;6.53;4.50;;;13.90;91.40;;;;;;5019016;28;20493;-51
2022/05/18 01:57:10;;;;;;;8.40;4.47;;;13.90;91.20;;;;;;5017567;28;20481;-51
2022/05/18 01:59:38;;;;;;;4.10;3.27;;;13.90;91.20;;;;;;5017369;28;20482;-51
2022/05/18 02:02:12;;;;;;;3.50;3.20;;;13.90;91.60;;;;;;5012153;28;20492;-52
2022/05/18 02:04:40;;;;;;;4.30;3.80;;;13.80;91.20;;;;;;5018207;28;20488;-51
2022/05/18 02:07:07;;;;;;;4.33;3.93;;;13.60;91.50;;;;;;5015146;28;20523;-51
2022/05/18 02:09:33;;;;;;;4.40;4.00;;;13.60;92.10;;;;;;5014848;28;20505;-51
2022/05/18 02:12:00;;;;;;;3.83;3.43;;;13.60;91.80;;;;;;4988565;28;20494;-51
2022/05/18 02:14:27;;;;;;;4.63;3.50;;;13.60;91.70;;;;;;5030350;28;20491;-51
2022/05/18 02:16:54;;;;;;;5.40;3.87;;;13.70;91.70;;;;;;5016796;28;21036;-51
2022/05/18 02:19:22;;;;;;;5.53;3.43;;;13.70;91.80;;;;;;5018681;28;20491;-51
2022/05/18 02:21:49;;;;;;;8.93;4.30;;;13.70;91.60;;;;;;5017164;28;20491;-51
2022/05/18 02:24:17;;;;;;;4.53;3.83;;;13.80;91.40;;;;;;5019369;28;20594;-51
2022/05/18 02:26:43;;;;;;;5.90;4.13;;;13.80;91.40;;;;;;5019786;28;20487;-54
2022/05/18 02:29:10;;;;;;;5.90;3.70;;;13.80;91.10;;;;;;5020475;28;20478;-54
2022/05/18 02:31:37;;;;;;;6.83;4.07;;;13.90;91.10;;;;;;5020734;28;20483;-54
2022/05/18 02:34:05;;;;;;;5.50;3.77;;;13.80;91.00;;;;;;5019151;28;20885;-55
2022/05/18 02:36:34;;;;;;;3.87;3.50;;;13.80;90.90;;;;;;5019917;28;21083;-55
2022/05/18 02:39:01;;;;;;;4.17;3.50;;;13.60;91.10;;;;;;5014980;28;20482;-54
2022/05/18 02:41:27;;;;;;;3.90;3.50;;;13.40;91.20;;;;;;5017054;28;20486;-54
2022/05/18 02:43:54;;;;;;;4.70;4.30;;;13.30;91.40;;;;;;5019994;28;20530;-54
2022/05/18 02:46:23;;;;;;;8.20;3.90;;;13.30;91.60;;;;;;5019992;28;20522;-55
2022/05/18 02:48:52;;;;;;;4.50;3.67;;;13.30;91.50;;;;;;5018909;28;20536;-51
2022/05/18 02:51:18;;;;;;;5.60;4.23;;;13.20;91.50;;;;;;5021236;28;20556;-51
2022/05/18 02:53:46;;;;;;;3.67;3.37;;;13.10;91.60;;;;;;5019144;28;20897;-51
2022/05/18 02:56:16;;;;;;;6.63;4.63;;;13.00;92.20;;;;;;5019344;28;20481;-51
2022/05/18 02:58:44;;;;;;;4.70;4.30;;;12.80;92.60;;;;;;5015821;28;20466;-51
2022/05/18 03:01:13;;;;;;;4.07;3.67;;;12.80;93.00;;;;;;5011685;28;20494;-51
2022/05/18 03:03:41;;;;;;;5.30;4.77;;;12.70;93.00;;;;;;5007923;28;20463;-51
2022/05/18 03:06:10;;;;;;;14.30;4.37;;;12.70;93.30;;;;;;5005236;28;20484;-51
2022/05/18 03:08:39;;;;;;;4.93;3.80;;;12.80;93.30;;;;;;5004524;28;20480;-51
2022/05/18 03:11:08;;;;;;;4.83;4.30;;;12.90;92.90;;;;;;4993791;28;20480;-51
2022/05/18 03:13:35;;;;;;;8.77;4.40;;;13.00;92.80;;;;;;4975799;28;20579;-50
2022/05/18 03:16:02;;;;;;;11.23;4.23;;;13.10;92.50;;;;;;4983319;28;20507;-51
2022/05/18 03:18:29;;;;;;;3.73;3.30;;;13.20;92.10;;;;;;5027325;28;20914;-51
2022/05/18 03:23:41;;;;;;;6.23;3.00;;;13.20;91.80;;;;;;4992635;28;20547;-50
2022/05/18 03:26:11;;;;;;;3.77;3.40;;;13.20;91.60;;;;;;4995834;28;20490;-50
2022/05/18 03:28:39;;;;;;;4.87;4.37;;;13.20;91.60;;;;;;5022947;28;20977;-51
2022/05/18 03:31:06;;;;;;;5.10;3.90;;;13.00;91.80;;;;;;4947904;28;20605;-51
2022/05/18 03:33:33;;;;;;;6.53;4.50;;;13.00;91.90;;;;;;4959037;28;20567;-51
2022/05/18 03:36:00;;;;;;;5.20;4.37;;;12.90;92.10;;;;;;4963782;28;20997;-51
2022/05/18 03:38:28;;;;;;;10.80;4.80;;;12.90;92.40;;;;;;4962868;28;20986;-51
2022/05/18 03:40:54;;;;;;;3.50;3.20;;;12.80;92.30;;;;;;4979369;28;21211;-51
2022/05/18 03:43:22;;;;;;;4.07;3.77;;;12.80;92.00;;;;;;5012280;28;20496;-51
2022/05/18 03:45:50;;;;;;;3.80;3.13;;;12.80;91.80;;;;;;4993274;28;20498;-53
2022/05/18 03:48:18;;;;;;;4.60;3.57;;;12.90;91.80;;;;;;5006994;28;20754;-51
2022/05/18 03:50:47;;;;;;;8.50;3.47;;;12.80;91.70;;;;;;4957363;28;20985;-51
2022/05/18 03:53:14;;;;;;;7.43;3.73;;;12.80;91.70;;;;;;5019309;28;20488;-51
2022/05/18 03:55:43;;;;;;;5.10;3.80;;;12.80;91.80;;;;;;4961329;28;20504;-51
2022/05/18 03:58:10;;;;;;;8.03;3.80;;;12.80;92.00;;;;;;4971199;28;20491;-51
2022/05/18 04:00:39;;;;;;;10.37;3.77;;;12.80;92.10;;;;;;4990519;28;21074;-51
2022/05/18 04:03:06;;;;;;;4.47;4.03;;;12.70;92.20;;;;;;4980539;28;21172;-51
2022/05/18 04:05:33;;;;;;;6.63;3.97;;;12.60;92.20;;;;;;4934270;28;20553;-51
2022/05/18 04:08:00;;;;;;;4.73;4.00;;;12.50;92.40;;;;;;4970033;28;20534;-54
2022/05/18 04:10:27;;;;;;;5.97;4.53;;;12.50;92.50;;;;;;4964017;28;20531;-51
2022/05/18 04:12:54;;;;;;;5.23;4.10;;;12.50;92.90;;;;;;4972334;28;20894;-51
2022/05/18 04:15:20;;;;;;;3.60;3.30;;;12.50;93.00;;;;;;4952335;28;20554;-50
2022/05/18 04:17:49;;;;;;;6.43;4.30;;;12.60;92.90;;;;;;4964801;28;20912;-51
2022/05/18 04:20:18;;;;;;;7.40;4.37;;;12.50;92.90;;;;;;4966046;28;20491;-51
2022/05/18 04:22:45;;;;;;;5.60;4.37;;;12.50;93.00;;;;;;4988686;28;20500;-51
2022/05/18 04:25:15;;;;;;;4.10;3.67;;;12.60;93.00;;;;;;4987380;28;20538;-52
2022/05/18 04:27:42;;;;;;;4.90;3.90;;;12.60;92.80;;;;;;5019483;28;20514;-51
2022/05/18 04:30:10;;;;;;;4.20;3.73;;;12.70;92.70;;;;;;5017356;28;20492;-51
2022/05/18 04:32:39;;;;;;;4.77;3.50;;;12.70;92.70;;;;;;5019392;28;20475;-51
2022/05/18 04:35:09;;;;;;;5.83;4.47;;;12.80;92.60;;;;;;5017074;28;20492;-50
2022/05/18 04:37:36;;;;;;;4.30;3.87;;;12.80;92.70;;;;;;5001948;28;20951;-50
2022/05/18 04:40:04;;;;;;;7.10;4.20;;;12.90;92.80;;;;;;5004163;28;20490;-50
2022/05/18 04:42:30;;;;;;;6.53;4.33;;;12.90;93.00;;;;;;4998235;28;20559;-50
2022/05/18 04:44:57;;;;;;;9.23;4.50;;;13.00;93.30;;;;;;4997835;28;20482;-51
2022/05/18 04:47:25;;;;;;;6.57;4.90;;;13.00;93.60;;;;;;4988093;28;20489;-51
2022/05/18 04:49:52;;;;;;;6.03;4.27;;;13.00;93.60;;;;;;4988724;28;20512;-51
2022/05/18 04:52:22;;;;;;;6.27;4.73;;;13.00;93.60;;;;;;4998990;28;20533;-51
2022/05/18 04:54:49;;;;;;;4.83;4.30;;;13.10;93.80;;;;;;4998518;28;20542;-51
2022/05/18 04:57:16;;;;;;;6.27;4.03;;;13.00;94.50;;;;;;4997480;28;20503;-51
2022/05/18 04:59:44;;;;;;;4.60;4.20;;;13.00;94.40;;;;;;4996741;28;20498;-51
2022/05/18 05:02:10;;;;;;;5.43;4.50;;;13.20;94.20;;;;;;4998399;28;20489;-51
2022/05/18 05:04:38;;;;;;;5.47;4.17;;;13.30;94.10;;;;;;5018391;28;20875;-51
2022/05/18 05:07:05;;;;;;;5.27;4.63;;;13.40;94.20;;;;;;5015278;28;20494;-54
2022/05/18 05:09:33;;;;;;;6.60;5.20;;;13.50;94.40;;;;;;5018099;28;20489;-51
2022/05/18 05:12:00;;;;;;;8.60;5.30;;;13.60;94.70;;;;;;5014224;28;20480;-51
2022/05/18 05:14:27;;;;;;;7.50;5.27;;;13.70;94.50;;;;;;5018924;28;20486;-51
2022/05/18 05:16:54;;;;;;;6.03;4.83;;;13.90;94.90;;;;;;5013033;28;20927;-51
2022/05/18 05:19:21;;;;;;;5.73;5.20;;;14.00;95.20;;;;;;5031447;28;20743;-51
2022/05/18 05:21:47;;;;;;;6.57;5.80;;;14.10;95.40;;;;;;5021313;28;20485;-51
2022/05/18 05:24:16;;;;;;;8.50;5.83;;;14.20;95.40;;;;;;5021796;28;20485;-53
2022/05/18 05:26:44;;;;;;;12.83;5.83;;;14.40;95.40;;;;;;5017137;28;20547;-51
2022/05/18 05:29:12;;;;;;;6.27;5.60;;;14.50;96.10;;;;;;5021624;28;20482;-52
2022/05/18 05:31:40;;;;;;;5.87;5.30;;;14.60;96.30;;;;;;5020906;28;20512;-52
2022/05/18 05:34:06;;;;;;;6.50;5.83;;;14.70;95.70;;;;;;5019789;28;20489;-51
2022/05/18 05:36:33;;;;;;;7.27;4.80;;;14.80;95.60;;;;;;5017983;28;20776;-51
2022/05/18 05:39:00;;;;;;;6.37;5.30;;;14.80;95.80;;;;;;5019908;28;20971;-51
2022/05/18 05:41:27;;;;;;;5.97;5.33;;;14.90;95.70;;;;;;5020001;28;20884;-51
2022/05/18 05:43:56;;;;;;;9.80;6.90;;;15.00;95.80;;;;;;5012883;28;20584;-52
2022/05/18 05:46:27;;;;;;;6.00;5.30;;;15.20;95.90;;;;;;5021503;28;20974;-51
2022/05/18 05:48:55;;;;;;;6.93;6.23;;;15.40;95.70;;;;;;5021794;28;20487;-52
2022/05/18 05:51:23;;;;;;;6.97;6.27;;;15.60;96.20;;;;;;5021342;28;20495;-51
2022/05/18 05:53:51;;;;;;;10.07;7.30;;;15.80;96.80;;;;;;5017422;28;20483;-51
2022/05/18 05:56:19;;;;;;;7.73;6.93;;;16.00;97.10;;;;;;5019603;28;20608;-52
2022/05/18 05:58:47;;;;;;;12.37;7.33;;;16.30;97.00;;;;;;5020932;28;20474;-53
2022/05/18 06:01:17;;;;;;;9.37;6.57;;;16.40;96.90;;;;;;5020529;28;20474;-51
2022/05/18 06:03:44;;;;;;;9.33;6.90;;;16.70;97.00;;;;;;5020868;28;20475;-52
2022/05/18 06:06:11;;;;;;;10.60;6.17;;;16.80;96.70;;;;;;5014902;28;20488;-52
2022/05/18 06:08:38;;;;;;;9.70;6.70;;;17.10;96.80;;;;;;5021842;28;21073;-52
2022/05/18 06:11:07;;;;;;;8.27;7.40;;;17.20;96.90;;;;;;5018441;28;20900;-51
2022/05/18 06:13:34;;;;;;;7.67;6.90;;;17.30;96.90;;;;;;5021096;28;20559;-52
2022/05/18 06:16:00;;;;;;;15.67;7.20;;;17.50;97.00;;;;;;5014954;28;20904;-52
2022/05/18 06:18:29;;;;;;;7.27;6.53;;;17.70;97.10;;;;;;5014321;28;20546;-52
2022/05/18 06:20:57;;;;;;;7.63;6.27;;;17.90;96.60;;;;;;5015909;28;20503;-52
2022/05/18 06:23:24;;;;;;;12.80;6.27;;;18.10;96.60;;;;;;5020645;28;20603;-53
2022/05/18 06:25:51;;;;;;;9.70;5.97;;;18.30;96.60;;;;;;5018060;28;20526;-53
2022/05/18 06:28:17;;;;;;;8.13;6.33;;;18.50;96.50;;;;;;5020800;28;20480;-53
2022/05/18 06:30:46;;;;;;;8.90;6.17;;;18.70;95.80;;;;;;5018751;28;20561;-53
2022/05/18 06:33:12;;;;;;;11.10;6.27;;;19.00;95.70;;;;;;5019775;28;21020;-53
2022/05/18 06:35:40;;;;;;;6.20;5.40;;;19.10;95.70;;;;;;5018484;28;20485;-53
2022/05/18 06:38:13;;;;;;;7.00;6.17;;;19.30;95.00;;;;;;5016079;28;20468;-53
2022/05/18 06:43:24;;;;;;;6.80;5.70;;;19.60;94.70;;;;;;5021920;28;20482;-53
2022/05/18 06:45:51;;;;;;;8.70;6.70;;;19.80;94.60;;;;;;5019346;28;20840;-53
2022/05/18 06:48:19;;;;;;;7.67;6.43;;;20.10;94.70;;;;;;5018307;28;21036;-54
2022/05/18 06:50:47;;;;;;;10.30;6.27;;;20.30;94.00;;;;;;5020708;28;20476;-53
2022/05/18 06:53:14;;;;;;;6.63;5.93;;;20.60;94.20;;;;;;5007041;28;20473;-53
2022/05/18 06:55:40;;;;;;;11.13;5.90;;;20.90;94.00;;;;;;5017269;28;20954;-53
2022/05/18 06:58:07;;;;;;;6.50;5.80;;;21.30;93.90;;;;;;5020202;28;20479;-53
2022/05/18 07:00:34;;;;;;;6.17;5.57;;;21.60;93.00;;;;;;5019616;28;20476;-54
2022/05/18 07:03:00;;;;;;;6.77;5.17;;;21.90;92.40;;;;;;5019640;28;20515;-54
2022/05/18 07:05:27;;;;;;;6.30;5.80;;;22.20;92.40;;;;;;5018139;28;20583;-54
2022/05/18 07:07:55;;;;;;;7.07;6.10;;;22.50;91.90;;;;;;5019676;28;20516;-54
2022/05/18 07:10:22;;;;;;;6.10;5.50;;;22.70;91.50;;;;;;5020505;28;20484;-54
2022/05/18 07:12:49;;;;;;;8.73;5.50;;;23.00;91.40;;;;;;5019602;28;20477;-55
2022/05/18 07:15:16;;;;;;;9.50;6.07;;;23.30;92.00;;;;;;5018828;28;20569;-58
2022/05/18 07:17:43;;;;;;;7.07;6.37;;;23.50;91.30;;;;;;5018339;28;20468;-54
2022/05/18 07:20:11;;;;;;;5.40;4.83;;;23.70;91.10;;;;;;5020282;28;20567;-55
2022/05/18 07:22:38;;;;;;;7.30;5.07;;;24.00;91.10;;;;;;5020881;28;20534;-55
2022/05/18 07:25:07;;;;;;;9.10;6.20;;;24.30;91.50;;;;;;5017258;28;20495;-55
2022/05/18 07:27:34;;;;;;;5.27;4.77;;;24.60;91.50;;;;;;5017086;28;20579;-55
2022/05/18 07:30:02;;;;;;;6.43;5.27;;;24.90;90.80;;;;;;5011103;28;20903;-56
2022/05/18 07:32:29;;;;;;;5.73;5.13;;;25.10;90.20;;;;;;5025621;28;20487;-55
2022/05/18 07:34:56;;;;;;;5.10;4.60;;;25.40;90.40;;;;;;5018954;28;21073;-56
2022/05/18 07:37:23;;;;;;;9.33;6.30;;;25.70;89.80;;;;;;5017317;28;21014;-57
2022/05/18 07:39:50;;;;;;;10.43;5.10;;;25.90;88.00;;;;;;5020137;28;20489;-55
2022/05/18 07:42:18;;;;;;;6.70;5.63;;;26.10;86.50;;;;;;5016884;28;20492;-55
2022/05/18 07:44:47;;;;;;;4.47;4.17;;;26.00;84.90;;;;;;5018065;28;20496;-55
2022/05/18 07:47:13;;;;;;;6.10;4.20;;;26.10;85.30;;;;;;5017359;28;20894;-56
2022/05/18 07:49:43;;;;;;;8.60;4.77;;;26.30;85.00;;;;;;5017311;28;20473;-55
2022/05/18 07:52:10;;;;;;;5.10;3.80;;;26.40;82.70;;;;;;5016581;28;20496;-55
2022/05/18 07:54:37;;;;;;;4.13;3.83;;;26.20;81.90;;;;;;5018166;28;20931;-56
2022/05/18 07:57:08;;;;;;;4.97;4.60;;;26.10;85.50;;;;;;5015802;28;20487;-55
2022/05/18 07:59:36;;;;;;;5.23;4.43;;;26.10;80.50;;;;;;4998118;28;20896;-56
2022/05/18 08:02:03;;;;;;;5.27;4.77;;;26.20;82.20;;;;;;4997401;28;20485;-55
2022/05/18 08:04:30;;;;;;;4.40;4.10;;;26.20;81.50;;;;;;4999505;28;20857;-55
2022/05/18 08:06:56;;;;;;;4.17;3.80;;;26.10;78.20;;;;;;4995936;28;20924;-55
2022/05/18 08:09:23;;;;;;;6.27;4.27;;;26.00;80.00;;;;;;4998993;28;20474;-56
2022/05/18 08:17:20;;;;;;;7.57;3.63;;;25.90;77.70;;;;;;5017459;28;20642;-55
2022/05/18 08:19:47;;;;;;;4.90;4.47;;;25.90;79.00;;;;;;5015528;28;20484;-56
2022/05/18 08:22:14;;;;;;;7.20;3.80;;;25.70;75.20;;;;;;5018818;28;20480;-56
2022/05/18 08:24:41;;;;;;;4.53;4.13;;;25.70;75.50;;;;;;5014922;28;20959;-56
2022/05/18 08:27:13;;;;;;;4.83;4.03;;;25.70;78.30;;;;;;5017545;28;20946;-55
2022/05/18 08:29:41;;;;;;;7.00;4.23;;;25.80;76.90;;;;;;5017957;28;21045;-56
2022/05/18 08:32:08;;;;;;;6.97;4.37;;;25.70;74.50;;;;;;5018510;28;20495;-57
2022/05/18 08:34:35;;;;;;;8.63;3.83;;;25.90;78.80;;;;;;5017652;28;20516;-57
2022/05/18 08:37:01;;;;;;;3.90;3.60;;;26.00;75.20;;;;;;5017379;28;20732;-56
2022/05/18 08:39:28;;;;;;;6.10;3.70;;;26.10;75.60;;;;;;5009145;28;20886;-58
2022/05/18 08:41:58;;;;;;;7.37;4.40;;;26.20;76.40;;;;;;4999878;28;20469;-57
2022/05/18 08:44:28;;;;;;;7.60;3.90;;;26.30;75.80;;;;;;5018346;28;20497;-57
2022/05/18 08:47:12;;;;;;;12.63;4.27;;;26.60;78.90;;;;;;5015301;28;20483;-56
2022/05/18 08:49:45;;;;;;;4.20;3.60;;;26.70;73.10;;;;;;5019100;28;20947;-56
2022/05/18 08:52:30;;;;;;;3.80;3.50;;;26.80;75.30;;;;;;5018974;28;21161;-57
2022/05/18 08:55:13;;;;;;;4.80;3.60;;;27.00;72.60;;;;;;5021060;28;20481;-57
2022/05/18 08:57:43;;;;;;;7.47;4.50;;;27.00;72.60;;;;;;5019282;28;20484;-60
2022/05/18 09:00:15;;;;;;;5.07;3.80;;;27.10;74.90;;;;;;5023459;28;20539;-58
2022/05/18 09:02:45;;;;;;;5.00;3.90;;;27.30;72.00;;;;;;5017949;28;20496;-58
2022/05/18 09:05:14;;;;;;;4.20;3.80;;;27.40;73.40;;;;;;5020051;28;20484;-55
2022/05/18 09:07:46;;;;;;;4.50;4.10;;;27.40;71.70;;;;;;5022779;28;20462;-54
2022/05/18 09:10:24;;;;;;;8.40;3.30;;;27.40;72.10;;;;;;5017198;28;20534;-55
2022/05/18 09:12:51;;;;;;;4.13;3.23;;;27.50;74.30;;;;;;5020749;28;20472;-55
2022/05/18 09:15:22;;;;;;;4.53;3.67;;;27.80;72.20;;;;;;5019621;28;20488;-54
2022/05/18 09:17:55;;;;;;;3.67;3.33;;;28.00;71.90;;;;;;5021070;28;20914;-56
2022/05/18 09:20:25;;;;;;;3.77;3.47;;;28.20;71.80;;;;;;5022915;28;20530;-55
2022/05/18 09:23:19;;;;;;;5.97;3.80;;;28.20;70.40;;;;;;5021363;28;20579;-55
2022/05/18 09:26:01;;;;;;;6.10;4.90;;;28.30;71.30;;;;;;5018058;28;20484;-54
2022/05/18 09:28:41;;;;;;;4.80;3.83;;;28.30;71.80;;;;;;5006248;28;20476;-55
2022/05/18 09:31:21;;;;;;;5.00;4.00;;;28.30;69.80;;;;;;5021209;28;20480;-56
2022/05/18 09:34:05;;;;;;;11.07;3.30;;;28.40;70.90;;;;;;5016467;28;20982;-56
2022/05/18 09:36:50;;;;;;;5.70;4.10;;;28.20;69.00;;;;;;5009753;28;20854;-55
2022/05/18 09:39:20;;;;;;;4.20;3.87;;;28.10;69.30;;;;;;5021687;28;20489;-55
2022/05/18 09:41:51;;;;;;;4.83;3.90;;;28.20;71.70;;;;;;5020742;28;20523;-54
2022/05/18 09:44:23;;;;;;;6.80;4.00;;;28.20;71.00;;;;;;5021748;28;20462;-54
2022/05/18 09:46:52;;;;;;;4.90;4.07;;;28.30;71.80;;;;;;5019635;28;20923;-53
2022/05/18 09:49:26;;;;;;;6.57;4.73;;;28.40;71.20;;;;;;5021210;28;20535;-53
2022/05/18 09:51:56;;;;;;;3.90;3.50;;;28.40;71.40;;;;;;5019818;28;20488;-54
2022/05/18 09:54:24;;;;;;;4.67;4.27;;;28.70;72.50;;;;;;5019749;28;20538;-53
2022/05/18 09:56:56;;;;;;;4.27;3.87;;;29.10;73.00;;;;;;5014969;28;20608;-54
2022/05/18 09:59:28;;;;;;;3.80;3.50;;;29.00;68.60;;;;;;5020557;28;20455;-53
2022/05/18 10:07:31;;;;;;;4.40;4.00;;;29.30;71.10;;;;;;5020415;28;20499;-54
2022/05/18 10:10:05;;;;;;;4.27;3.87;;;29.10;67.00;;;;;;5021097;28;20465;-54
2022/05/18 10:12:38;;;;;;;5.30;3.57;;;29.20;70.40;;;;;;5009536;28;20469;-55
2022/05/18 10:15:09;;;;;;;4.93;3.90;;;29.40;70.60;;;;;;5018304;28;20527;-54
2022/05/18 10:17:39;;;;;;;4.27;3.87;;;29.20;69.50;;;;;;5015185;28;20473;-54
2022/05/18 10:20:11;;;;;;;5.13;3.60;;;29.20;68.60;;;;;;5021422;28;20489;-53
2022/05/18 10:22:42;;;;;;;5.70;3.53;;;29.20;68.30;;;;;;5020382;28;20540;-54
2022/05/18 10:25:13;;;;;;;5.23;3.20;;;29.40;70.10;;;;;;5018119;28;20485;-55
2022/05/18 10:27:44;;;;;;;3.97;3.60;;;29.40;67.00;;;;;;5019246;28;20459;-53
2022/05/18 10:30:16;;;;;;;4.10;3.40;;;29.20;66.20;;;;;;5020589;28;20466;-54
2022/05/18 10:32:56;;;;;;;8.90;4.00;;;29.10;66.50;;;;;;5019334;28;20489;-53
2022/05/18 10:35:47;;;;;;;4.50;4.10;;;29.30;67.00;;;;;;5018015;28;20480;-54
2022/05/18 10:38:21;;;;;;;5.63;3.90;;;29.70;70.20;;;;;;5019730;28;20816;-53
2022/05/18 10:40:49;;;;;;;4.80;3.37;;;30.10;69.00;;;;;;5019882;28;20961;-53
2022/05/18 10:43:31;;;;;;;4.10;3.80;;;30.40;68.90;;;;;;5020246;28;20463;-54
2022/05/18 10:46:02;;;;;;;4.00;3.70;;;30.60;64.50;;;;;;5017220;28;20484;-53
2022/05/18 10:48:30;;;;;;;2.90;2.70;;;30.80;65.40;;;;;;5009377;28;20447;-53
2022/05/18 10:51:06;;;;;;;3.70;3.30;;;31.00;68.20;;;;;;5018341;28;20439;-53
2022/05/18 10:53:36;;;;;;;8.03;3.30;;;31.30;67.40;;;;;;5009584;28;20542;-54
2022/05/18 10:56:08;;;;;;;7.93;4.43;;;31.30;66.90;;;;;;5017414;28;20953;-54
2022/05/18 10:58:40;;;;;;;7.30;3.37;;;31.30;64.60;;;;;;5019443;28;20805;-55
2022/05/18 11:01:16;;;;;;;5.73;4.10;;;31.20;64.30;;;;;;5020443;28;20452;-55
2022/05/18 11:03:51;;;;;;;4.00;3.20;;;31.10;66.00;;;;;;5015073;28;20909;-54
2022/05/18 11:06:21;;;;;;;5.20;3.73;;;30.80;64.40;;;;;;5018590;28;21013;-53
2022/05/18 11:08:50;;;;;;;3.40;3.10;;;30.90;63.70;;;;;;5019526;28;20480;-55
2022/05/18 11:11:26;;;;;;;4.07;3.13;;;30.70;63.40;;;;;;5018650;28;20451;-55
2022/05/18 11:14:00;;;;;;;3.63;3.10;;;30.80;62.40;;;;;;5019180;28;20869;-55
2022/05/18 11:16:45;;;;;;;3.50;3.30;;;31.20;65.30;;;;;;5016021;28;21065;-55
2022/05/18 11:19:22;;;;;;;3.50;2.93;;;31.40;64.50;;;;;;5013064;28;20477;-56
2022/05/18 11:22:00;;;;;;;3.33;2.57;;;31.40;60.10;;;;;;5026950;28;20513;-55
2022/05/18 11:24:36;;;;;;;4.60;3.00;;;31.50;62.70;;;;;;5013840;28;20446;-55
2022/05/18 11:27:13;;;;;;;4.53;3.23;;;31.30;59.70;;;;;;5023477;28;20448;-57
2022/05/18 11:30:02;;;;;;;4.67;3.80;;;31.50;64.10;;;;;;4998264;28;20477;-55
2022/05/18 11:32:38;;;;;;;4.10;3.70;;;31.70;63.40;;;;;;4999687;28;20448;-55
2022/05/18 11:35:23;;;;;;;4.87;3.50;;;31.90;64.60;;;;;;5001703;28;20480;-56
2022/05/18 11:38:09;;;;;;;6.57;4.20;;;32.00;62.10;;;;;;5015842;28;20506;-55
2022/05/18 11:40:43;;;;;;;4.33;4.03;;;31.90;63.10;;;;;;4996730;28;20432;-56
2022/05/18 11:43:28;;;;;;;4.17;3.87;;;31.90;65.10;;;;;;5012948;28;20516;-55
2022/05/18 11:46:10;;;;;;;5.33;3.67;;;32.00;62.50;;;;;;5016915;28;20842;-54
2022/05/18 11:48:45;;;;;;;4.03;3.73;;;32.30;66.30;;;;;;5019630;28;20501;-55
2022/05/18 11:51:19;;;;;;;5.00;2.97;;;32.60;63.60;;;;;;5018590;28;20462;-55
2022/05/18 11:53:57;;;;;;;4.53;3.57;;;32.70;61.70;;;;;;5014718;28;20450;-55
2022/05/18 11:56:33;;;;;;;5.17;2.70;;;32.60;61.40;;;;;;5017002;28;20501;-54
2022/05/18 11:59:24;;;;;;;4.63;3.20;;;32.70;59.30;;;;;;5018550;28;20810;-54
2022/05/18 12:01:57;;;;;;;6.17;3.30;;;32.60;62.80;;;;;;5018268;28;20456;-54
2022/05/18 12:05:01;;;;;;;4.73;3.00;;;32.50;58.60;;;;;;5014877;28;21071;-54
2022/05/18 12:07:45;;;;;;;4.67;3.23;;;32.40;58.70;;;;;;4981294;28;20447;-54
2022/05/18 12:10:25;;;;;;;4.23;3.50;;;31.80;57.70;;;;;;5017112;28;20559;-55
2022/05/18 12:13:01;;;;;;;4.40;3.07;;;32.00;59.80;;;;;;5014800;28;20494;-54
2022/05/18 12:15:38;;;;;;;7.13;3.50;;;32.20;59.90;;;;;;5010126;28;20553;-54
2022/05/18 12:18:08;;;;;;;5.00;3.80;;;31.80;59.70;;;;;;4996744;28;21282;-54
2022/05/18 12:20:41;;;;;;;3.00;2.80;;;31.90;59.30;;;;;;4990425;28;20451;-55
2022/05/18 12:23:12;;;;;;;3.30;3.00;;;32.10;60.40;;;;;;5017414;28;20443;-55
2022/05/18 12:25:40;;;;;;;4.90;3.00;;;31.80;57.10;;;;;;5016835;28;20869;-55
2022/05/18 12:28:09;;;;;;;4.40;3.47;;;32.00;57.30;;;;;;5018110;28;20509;-57
2022/05/18 12:30:40;;;;;;;5.27;2.90;;;31.60;58.10;;;;;;5018464;28;21111;-55
2022/05/18 12:33:09;;;;;;;3.13;2.83;;;31.70;59.70;;;;;;5021882;28;20485;-54
2022/05/18 12:35:46;;;;;;;5.30;3.17;;;31.70;57.00;;;;;;4998493;28;20503;-55
2022/05/18 12:38:23;;;;;;;7.40;3.20;;;31.80;58.70;;;;;;5013921;28;20484;-55
2022/05/18 12:40:54;;;;;;;6.30;3.63;;;31.50;57.10;;;;;;5016092;28;20485;-54
2022/05/18 12:43:27;;;;;;;3.40;3.10;;;31.30;57.60;;;;;;5013506;28;20447;-54
2022/05/18 12:46:00;;;;;;;4.10;2.97;;;31.40;61.70;;;;;;5015998;28;20528;-54
2022/05/18 12:48:37;;;;;;;2.83;2.63;;;31.30;58.40;;;;;;5015353;28;20493;-54
2022/05/18 12:51:16;;;;;;;6.50;3.00;;;31.20;58.20;;;;;;5016655;28;20501;-54
2022/05/18 12:54:17;;;;;;;7.67;3.23;;;31.40;59.00;;;;;;4996981;28;20469;-53
2022/05/18 12:57:13;;;;;;;5.87;3.40;;;31.40;58.90;;;;;;4987264;28;20449;-52
2022/05/18 13:00:15;;;;;;;5.87;3.03;;;31.30;57.10;;;;;;4985456;28;20477;-53
2022/05/18 13:02:44;;;;;;;2.73;2.33;;;31.40;60.30;;;;;;4997065;28;20782;-53
2022/05/18 13:05:36;;;;;;;6.17;3.00;;;31.60;60.30;;;;;;4990780;28;20452;-53
2022/05/18 13:08:25;;;;;;;4.97;3.23;;;31.40;58.50;;;;;;4998215;28;20860;-52
2022/05/18 13:11:09;;;;;;;8.33;3.77;;;31.40;56.80;;;;;;4995639;28;20539;-52
2022/05/18 13:13:57;;;;;;;4.20;2.87;;;31.60;62.10;;;;;;4996236;28;20883;-53
2022/05/18 13:17:14;;;;;;;3.67;3.37;;;31.80;59.20;;;;;;4996293;28;20515;-54
2022/05/18 13:19:47;;;;;;;7.17;3.50;;;31.70;57.20;;;;;;4988368;28;20474;-54